sensor_id;sensor_type;location;lat;lon;timestamp;pressure;altitude;pressure_sealevel;temperature
24740;BMP280;45234;48.148;17.128;2022-12-20T00:01:27;101514.47;;;0.93
24740;BMP280;45234;48.148;17.128;2022-12-20T00:03:55;101514.66;;;0.90
24740;BMP280;45234;48.148;17.128;2022-12-20T00:06:24;101510.66;;;0.85
24740;BMP280;45234;48.148;17.128;2022-12-20T00:09:00;101508.34;;;0.81
24740;BMP280;45234;48.148;17.128;2022-12-20T00:11:27;101497.88;;;0.85
24740;BMP280;45234;48.148;17.128;2022-12-20T00:13:56;101482.94;;;0.94
24740;BMP280;45234;48.148;17.128;2022-12-20T00:16:25;101471.75;;;0.96
24740;BMP280;45234;48.148;17.128;2022-12-20T00:18:56;101472.78;;;1.08
24740;BMP280;45234;48.148;17.128;2022-12-20T00:21:23;101470.47;;;1.03
24740;BMP280;45234;48.148;17.128;2022-12-20T00:23:51;101480.53;;;1.06
24740;BMP280;45234;48.148;17.128;2022-12-20T00:26:20;101467.91;;;1.03
24740;BMP280;45234;48.148;17.128;2022-12-20T00:28:47;101468.81;;;1.02
24740;BMP280;45234;48.148;17.128;2022-12-20T00:31:18;101481.25;;;1.08
24740;BMP280;45234;48.148;17.128;2022-12-20T00:33:47;101483.06;;;1.06
24740;BMP280;45234;48.148;17.128;2022-12-20T00:36:15;101493.72;;;0.99
24740;BMP280;45234;48.148;17.128;2022-12-20T00:38:46;101494.34;;;1.02
24740;BMP280;45234;48.148;17.128;2022-12-20T00:41:15;101486.50;;;1.05
24740;BMP280;45234;48.148;17.128;2022-12-20T00:43:43;101486.78;;;1.01
24740;BMP280;45234;48.148;17.128;2022-12-20T00:46:10;101492.22;;;0.95
24740;BMP280;45234;48.148;17.128;2022-12-20T00:48:37;101492.31;;;0.93
24740;BMP280;45234;48.148;17.128;2022-12-20T00:51:07;101477.91;;;0.92
24740;BMP280;45234;48.148;17.128;2022-12-20T00:53:35;101474.53;;;0.92
24740;BMP280;45234;48.148;17.128;2022-12-20T00:56:03;101450.75;;;0.91
24740;BMP280;45234;48.148;17.128;2022-12-20T00:58:31;101459.97;;;0.94
24740;BMP280;45234;48.148;17.128;2022-12-20T01:00:59;101460.47;;;0.84
24740;BMP280;45234;48.148;17.128;2022-12-20T01:03:26;101472.41;;;0.84
24740;BMP280;45234;48.148;17.128;2022-12-20T01:05:56;101486.56;;;0.90
24740;BMP280;45234;48.148;17.128;2022-12-20T01:08:24;101479.44;;;0.80
24740;BMP280;45234;48.148;17.128;2022-12-20T01:13:26;101478.94;;;0.90
24740;BMP280;45234;48.148;17.128;2022-12-20T01:15:53;101478.44;;;0.83
24740;BMP280;45234;48.148;17.128;2022-12-20T01:18:20;101470.69;;;0.84
24740;BMP280;45234;48.148;17.128;2022-12-20T01:20:46;101474.81;;;0.87
24740;BMP280;45234;48.148;17.128;2022-12-20T01:23:13;101485.03;;;0.87
24740;BMP280;45234;48.148;17.128;2022-12-20T01:25:40;101477.19;;;0.90
24740;BMP280;45234;48.148;17.128;2022-12-20T01:28:07;101483.03;;;0.92
24740;BMP280;45234;48.148;17.128;2022-12-20T01:30:33;101487.31;;;0.92
24740;BMP280;45234;48.148;17.128;2022-12-20T01:33:00;101484.22;;;0.86
24740;BMP280;45234;48.148;17.128;2022-12-20T01:35:27;101470.69;;;0.84
24740;BMP280;45234;48.148;17.128;2022-12-20T01:37:54;101461.38;;;0.83
24740;BMP280;45234;48.148;17.128;2022-12-20T01:40:21;101447.91;;;0.81
24740;BMP280;45234;48.148;17.128;2022-12-20T01:42:47;101453.72;;;0.83
24740;BMP280;45234;48.148;17.128;2022-12-20T01:45:22;101446.91;;;0.84
24740;BMP280;45234;48.148;17.128;2022-12-20T01:47:55;101454.41;;;0.87
24740;BMP280;45234;48.148;17.128;2022-12-20T01:50:23;101453.41;;;0.90
24740;BMP280;45234;48.148;17.128;2022-12-20T01:52:51;101459.81;;;0.97
24740;BMP280;45234;48.148;17.128;2022-12-20T01:55:22;101463.09;;;0.99
24740;BMP280;45234;48.148;17.128;2022-12-20T01:57:57;101448.28;;;0.90
24740;BMP280;45234;48.148;17.128;2022-12-20T02:00:26;101436.44;;;0.88
24740;BMP280;45234;48.148;17.128;2022-12-20T02:02:54;101434.13;;;0.84
24740;BMP280;45234;48.148;17.128;2022-12-20T02:05:24;101421.38;;;0.84
24740;BMP280;45234;48.148;17.128;2022-12-20T02:07:53;101422.19;;;0.84
24740;BMP280;45234;48.148;17.128;2022-12-20T02:10:23;101416.25;;;0.84
24740;BMP280;45234;48.148;17.128;2022-12-20T02:13:01;101411.25;;;0.82
24740;BMP280;45234;48.148;17.128;2022-12-20T02:15:53;101401.03;;;0.82
24740;BMP280;45234;48.148;17.128;2022-12-20T02:31:59;101402.25;;;1.05
24740;BMP280;45234;48.148;17.128;2022-12-20T02:34:30;101406.19;;;1.11
24740;BMP280;45234;48.148;17.128;2022-12-20T02:36:58;101401.28;;;1.08
24740;BMP280;45234;48.148;17.128;2022-12-20T02:39:28;101405.72;;;1.04
24740;BMP280;45234;48.148;17.128;2022-12-20T02:42:03;101411.84;;;1.02
24740;BMP280;45234;48.148;17.128;2022-12-20T02:44:32;101412.66;;;1.02
24740;BMP280;45234;48.148;17.128;2022-12-20T02:47:32;101400.16;;;0.98
24740;BMP280;45234;48.148;17.128;2022-12-20T02:50:02;101399.34;;;0.97
24740;BMP280;45234;48.148;17.128;2022-12-20T02:52:30;101408.81;;;0.95
24740;BMP280;45234;48.148;17.128;2022-12-20T02:54:59;101397.72;;;0.96
24740;BMP280;45234;48.148;17.128;2022-12-20T02:57:37;101395.06;;;0.98
24740;BMP280;45234;48.148;17.128;2022-12-20T03:00:13;101398.53;;;0.97
24740;BMP280;45234;48.148;17.128;2022-12-20T03:02:40;101394.59;;;1.05
24740;BMP280;45234;48.148;17.128;2022-12-20T03:05:27;101380.47;;;1.14
24740;BMP280;45234;48.148;17.128;2022-12-20T03:07:56;101376.09;;;1.16
24740;BMP280;45234;48.148;17.128;2022-12-20T03:10:24;101375.00;;;1.20
24740;BMP280;45234;48.148;17.128;2022-12-20T03:12:52;101375.72;;;1.22
24740;BMP280;45234;48.148;17.128;2022-12-20T03:15:19;101376.34;;;1.26
24740;BMP280;45234;48.148;17.128;2022-12-20T03:17:50;101369.16;;;1.18
24740;BMP280;45234;48.148;17.128;2022-12-20T03:20:17;101367.88;;;1.11
24740;BMP280;45234;48.148;17.128;2022-12-20T03:22:44;101370.53;;;1.09
24740;BMP280;45234;48.148;17.128;2022-12-20T03:25:11;101358.69;;;1.08
24740;BMP280;45234;48.148;17.128;2022-12-20T03:27:38;101367.16;;;1.09
24740;BMP280;45234;48.148;17.128;2022-12-20T03:30:06;101355.41;;;1.06
24740;BMP280;45234;48.148;17.128;2022-12-20T03:32:36;101358.78;;;1.07
24740;BMP280;45234;48.148;17.128;2022-12-20T03:35:04;101355.13;;;1.11
24740;BMP280;45234;48.148;17.128;2022-12-20T03:37:35;101356.22;;;1.07
24740;BMP280;45234;48.148;17.128;2022-12-20T03:40:04;101354.75;;;1.03
24740;BMP280;45234;48.148;17.128;2022-12-20T03:42:32;101353.94;;;1.02
24740;BMP280;45234;48.148;17.128;2022-12-20T03:44:59;101354.56;;;1.06
24740;BMP280;45234;48.148;17.128;2022-12-20T03:47:29;101351.19;;;1.05
24740;BMP280;45234;48.148;17.128;2022-12-20T03:49:57;101341.78;;;1.06
24740;BMP280;45234;48.148;17.128;2022-12-20T03:52:26;101346.47;;;0.99
24740;BMP280;45234;48.148;17.128;2022-12-20T03:54:52;101344.16;;;0.95
24740;BMP280;45234;48.148;17.128;2022-12-20T03:57:25;101345.28;;;0.91
24740;BMP280;45234;48.148;17.128;2022-12-20T03:59:53;101358.94;;;0.90
24740;BMP280;45234;48.148;17.128;2022-12-20T04:02:20;101362.59;;;0.85
24740;BMP280;45234;48.148;17.128;2022-12-20T04:04:48;101363.88;;;0.78
24740;BMP280;45234;48.148;17.128;2022-12-20T04:07:16;101352.00;;;0.77
24740;BMP280;45234;48.148;17.128;2022-12-20T04:09:45;101352.16;;;0.74
24740;BMP280;45234;48.148;17.128;2022-12-20T04:12:13;101355.81;;;0.70
24740;BMP280;45234;48.148;17.128;2022-12-20T04:14:41;101356.81;;;0.68
24740;BMP280;45234;48.148;17.128;2022-12-20T04:17:10;101357.66;;;0.68
24740;BMP280;45234;48.148;17.128;2022-12-20T04:19:37;101347.25;;;0.71
24740;BMP280;45234;48.148;17.128;2022-12-20T04:22:06;101350.72;;;0.70
24740;BMP280;45234;48.148;17.128;2022-12-20T04:24:47;101352.53;;;0.68
24740;BMP280;45234;48.148;17.128;2022-12-20T04:27:37;101350.19;;;0.65
24740;BMP280;45234;48.148;17.128;2022-12-20T04:30:06;101350.91;;;0.67
24740;BMP280;45234;48.148;17.128;2022-12-20T04:32:33;101354.28;;;0.68
24740;BMP280;45234;48.148;17.128;2022-12-20T04:35:00;101348.78;;;0.59
24740;BMP280;45234;48.148;17.128;2022-12-20T04:37:28;101357.03;;;0.65
24740;BMP280;45234;48.148;17.128;2022-12-20T04:39:56;101361.31;;;0.64
24740;BMP280;45234;48.148;17.128;2022-12-20T04:42:38;101356.19;;;0.64
24740;BMP280;45234;48.148;17.128;2022-12-20T04:45:06;101341.63;;;0.66
24740;BMP280;45234;48.148;17.128;2022-12-20T04:47:36;101349.28;;;0.66
24740;BMP280;45234;48.148;17.128;2022-12-20T04:50:05;101353.38;;;0.69
24740;BMP280;45234;48.148;17.128;2022-12-20T04:52:32;101350.63;;;0.72
24740;BMP280;45234;48.148;17.128;2022-12-20T04:55:17;101349.56;;;0.76
24740;BMP280;45234;48.148;17.128;2022-12-20T04:57:44;101339.34;;;0.76
24740;BMP280;45234;48.148;17.128;2022-12-20T05:00:12;101345.28;;;0.76
24740;BMP280;45234;48.148;17.128;2022-12-20T05:02:45;101328.31;;;0.75
24740;BMP280;45234;48.148;17.128;2022-12-20T05:05:16;101334.88;;;0.79
24740;BMP280;45234;48.148;17.128;2022-12-20T05:07:48;101332.13;;;0.82
24740;BMP280;45234;48.148;17.128;2022-12-20T05:10:17;101328.66;;;0.83
24740;BMP280;45234;48.148;17.128;2022-12-20T05:12:44;101330.16;;;0.87
24740;BMP280;45234;48.148;17.128;2022-12-20T05:15:23;101326.88;;;0.85
24740;BMP280;45234;48.148;17.128;2022-12-20T05:17:50;101325.19;;;0.84
24740;BMP280;45234;48.148;17.128;2022-12-20T05:20:17;101328.03;;;0.80
24740;BMP280;45234;48.148;17.128;2022-12-20T05:22:46;101329.97;;;0.76
24740;BMP280;45234;48.148;17.128;2022-12-20T05:25:33;101331.69;;;0.76
24740;BMP280;45234;48.148;17.128;2022-12-20T05:28:37;101324.66;;;0.65
24740;BMP280;45234;48.148;17.128;2022-12-20T05:31:05;101326.56;;;0.62
24740;BMP280;45234;48.148;17.128;2022-12-20T05:33:34;101316.53;;;0.58
24740;BMP280;45234;48.148;17.128;2022-12-20T05:36:02;101331.84;;;0.58
24740;BMP280;45234;48.148;17.128;2022-12-20T05:38:29;101332.03;;;0.55
24740;BMP280;45234;48.148;17.128;2022-12-20T05:40:56;101329.72;;;0.51
24740;BMP280;45234;48.148;17.128;2022-12-20T05:43:23;101331.22;;;0.55
24740;BMP280;45234;48.148;17.128;2022-12-20T05:45:51;101337.41;;;0.65
24740;BMP280;45234;48.148;17.128;2022-12-20T05:48:28;101332.47;;;0.62
24740;BMP280;45234;48.148;17.128;2022-12-20T05:50:55;101330.31;;;0.56
24740;BMP280;45234;48.148;17.128;2022-12-20T05:53:27;101312.88;;;0.48
24740;BMP280;45234;48.148;17.128;2022-12-20T05:55:57;101284.91;;;0.47
24740;BMP280;45234;48.148;17.128;2022-12-20T05:58:29;101294.94;;;0.50
24740;BMP280;45234;48.148;17.128;2022-12-20T06:01:06;101296.38;;;0.40
24740;BMP280;45234;48.148;17.128;2022-12-20T06:03:38;101306.56;;;0.40
24740;BMP280;45234;48.148;17.128;2022-12-20T06:06:23;101307.06;;;0.46
24740;BMP280;45234;48.148;17.128;2022-12-20T06:08:51;101309.16;;;0.54
24740;BMP280;45234;48.148;17.128;2022-12-20T06:11:27;101316.25;;;0.49
24740;BMP280;45234;48.148;17.128;2022-12-20T06:14:04;101331.00;;;0.44
24740;BMP280;45234;48.148;17.128;2022-12-20T06:16:32;101326.06;;;0.41
24740;BMP280;45234;48.148;17.128;2022-12-20T06:19:00;101324.34;;;0.41
24740;BMP280;45234;48.148;17.128;2022-12-20T06:21:29;101323.00;;;0.50
24740;BMP280;45234;48.148;17.128;2022-12-20T06:23:58;101323.00;;;0.50
24740;BMP280;45234;48.148;17.128;2022-12-20T06:26:25;101315.72;;;0.44
24740;BMP280;45234;48.148;17.128;2022-12-20T06:28:53;101317.97;;;0.48
24740;BMP280;45234;48.148;17.128;2022-12-20T06:31:29;101328.00;;;0.51
24740;BMP280;45234;48.148;17.128;2022-12-20T06:33:56;101323.47;;;0.56
24740;BMP280;45234;48.148;17.128;2022-12-20T06:36:27;101335.19;;;0.45
24740;BMP280;45234;48.148;17.128;2022-12-20T06:38:54;101333.63;;;0.42
24740;BMP280;45234;48.148;17.128;2022-12-20T06:41:21;101331.94;;;0.43
24740;BMP280;45234;48.148;17.128;2022-12-20T06:43:48;101319.81;;;0.46
24740;BMP280;45234;48.148;17.128;2022-12-20T06:46:15;101310.13;;;0.51
24740;BMP280;45234;48.148;17.128;2022-12-20T06:48:44;101320.19;;;0.54
24740;BMP280;45234;48.148;17.128;2022-12-20T06:51:12;101306.13;;;0.47
24740;BMP280;45234;48.148;17.128;2022-12-20T06:53:39;101302.97;;;0.44
24740;BMP280;45234;48.148;17.128;2022-12-20T06:56:06;101302.97;;;0.44
24740;BMP280;45234;48.148;17.128;2022-12-20T06:58:33;101303.09;;;0.41
24740;BMP280;45234;48.148;17.128;2022-12-20T07:01:00;101298.00;;;0.41
24740;BMP280;45234;48.148;17.128;2022-12-20T07:03:27;101291.28;;;0.40
24740;BMP280;45234;48.148;17.128;2022-12-20T07:05:54;101301.13;;;0.46
24740;BMP280;45234;48.148;17.128;2022-12-20T07:08:22;101297.84;;;0.44
24740;BMP280;45234;48.148;17.128;2022-12-20T07:10:49;101301.13;;;0.46
24740;BMP280;45234;48.148;17.128;2022-12-20T07:13:19;101295.22;;;0.45
24740;BMP280;45234;48.148;17.128;2022-12-20T07:15:45;101305.56;;;0.42
24740;BMP280;45234;48.148;17.128;2022-12-20T07:18:12;101308.78;;;0.46
24740;BMP280;45234;48.148;17.128;2022-12-20T07:20:39;101312.78;;;0.50
24740;BMP280;45234;48.148;17.128;2022-12-20T07:23:06;101311.63;;;0.55
24740;BMP280;45234;48.148;17.128;2022-12-20T07:25:32;101312.25;;;0.59
24740;BMP280;45234;48.148;17.128;2022-12-20T07:27:59;101313.88;;;0.60
24740;BMP280;45234;48.148;17.128;2022-12-20T07:30:26;101322.13;;;0.65
24740;BMP280;45234;48.148;17.128;2022-12-20T07:32:53;101317.94;;;0.64
24740;BMP280;45234;48.148;17.128;2022-12-20T07:35:20;101313.56;;;0.66
24740;BMP280;45234;48.148;17.128;2022-12-20T07:37:46;101307.34;;;0.70
24740;BMP280;45234;48.148;17.128;2022-12-20T07:40:13;101315.56;;;0.75
24740;BMP280;45234;48.148;17.128;2022-12-20T07:42:41;101301.31;;;0.71
24740;BMP280;45234;48.148;17.128;2022-12-20T07:45:14;101292.94;;;0.69
24740;BMP280;45234;48.148;17.128;2022-12-20T07:47:41;101298.06;;;0.69
24740;BMP280;45234;48.148;17.128;2022-12-20T07:50:09;101299.50;;;0.73
24740;BMP280;45234;48.148;17.128;2022-12-20T07:52:38;101306.25;;;0.74
24740;BMP280;45234;48.148;17.128;2022-12-20T07:55:07;101287.50;;;0.75
24740;BMP280;45234;48.148;17.128;2022-12-20T07:58:01;101288.03;;;0.66
24740;BMP280;45234;48.148;17.128;2022-12-20T08:00:30;101282.00;;;0.67
24740;BMP280;45234;48.148;17.128;2022-12-20T08:03:20;101293.84;;;0.54
24740;BMP280;45234;48.148;17.128;2022-12-20T08:05:52;101292.66;;;0.59
24740;BMP280;45234;48.148;17.128;2022-12-20T08:08:21;101286.41;;;0.65
24740;BMP280;45234;48.148;17.128;2022-12-20T08:10:48;101281.91;;;0.69
24740;BMP280;45234;48.148;17.128;2022-12-20T08:13:15;101284.84;;;0.77
24740;BMP280;45234;48.148;17.128;2022-12-20T08:15:43;101298.50;;;0.76
24740;BMP280;45234;48.148;17.128;2022-12-20T08:18:10;101300.25;;;0.75
24740;BMP280;45234;48.148;17.128;2022-12-20T08:20:38;101293.31;;;0.77
24740;BMP280;45234;48.148;17.128;2022-12-20T08:23:05;101301.97;;;0.75
24740;BMP280;45234;48.148;17.128;2022-12-20T08:25:34;101297.13;;;0.70
24740;BMP280;45234;48.148;17.128;2022-12-20T08:28:07;101285.81;;;0.74
24740;BMP280;45234;48.148;17.128;2022-12-20T08:30:37;101285.28;;;0.69
24740;BMP280;45234;48.148;17.128;2022-12-20T08:33:04;101284.38;;;0.70
24740;BMP280;45234;48.148;17.128;2022-12-20T08:35:57;101295.69;;;0.66
24740;BMP280;45234;48.148;17.128;2022-12-20T08:38:27;101300.50;;;0.71
24740;BMP280;45234;48.148;17.128;2022-12-20T08:40:55;101303.69;;;0.74
24740;BMP280;45234;48.148;17.128;2022-12-20T08:43:22;101311.00;;;0.80
24740;BMP280;45234;48.148;17.128;2022-12-20T08:45:54;101296.41;;;0.68
24740;BMP280;45234;48.148;17.128;2022-12-20T08:48:21;101280.00;;;0.72
24740;BMP280;45234;48.148;17.128;2022-12-20T08:50:57;101280.72;;;0.74
24740;BMP280;45234;48.148;17.128;2022-12-20T08:53:24;101296.03;;;0.74
24740;BMP280;45234;48.148;17.128;2022-12-20T08:55:51;101289.22;;;0.75
24740;BMP280;45234;48.148;17.128;2022-12-20T08:58:19;101278.34;;;0.71
24740;BMP280;45234;48.148;17.128;2022-12-20T09:00:46;101273.97;;;0.73
24740;BMP280;45234;48.148;17.128;2022-12-20T09:03:13;101266.88;;;0.78
24740;BMP280;45234;48.148;17.128;2022-12-20T09:05:45;101265.78;;;0.82
24740;BMP280;45234;48.148;17.128;2022-12-20T09:08:14;101260.22;;;0.90
24740;BMP280;45234;48.148;17.128;2022-12-20T09:10:42;101266.88;;;0.93
24740;BMP280;45234;48.148;17.128;2022-12-20T09:13:10;101259.41;;;0.90
24740;BMP280;45234;48.148;17.128;2022-12-20T09:15:37;101254.91;;;0.93
24740;BMP280;45234;48.148;17.128;2022-12-20T09:18:04;101251.03;;;0.87
24740;BMP280;45234;48.148;17.128;2022-12-20T09:20:31;101248.63;;;0.84
24740;BMP280;45234;48.148;17.128;2022-12-20T09:22:59;101251.19;;;0.84
24740;BMP280;45234;48.148;17.128;2022-12-20T09:25:27;101260.84;;;0.94
24740;BMP280;45234;48.148;17.128;2022-12-20T09:27:56;101269.78;;;1.01
24740;BMP280;45234;48.148;17.128;2022-12-20T09:30:23;101254.56;;;0.99
24740;BMP280;45234;48.148;17.128;2022-12-20T09:32:50;101247.53;;;1.03
24740;BMP280;45234;48.148;17.128;2022-12-20T09:35:17;101241.53;;;0.90
24740;BMP280;45234;48.148;17.128;2022-12-20T09:37:48;101243.25;;;0.89
24740;BMP280;45234;48.148;17.128;2022-12-20T09:40:21;101234.50;;;0.93
24740;BMP280;45234;48.148;17.128;2022-12-20T09:42:50;101240.00;;;0.87
24740;BMP280;45234;48.148;17.128;2022-12-20T09:45:27;101248.09;;;0.79
24740;BMP280;45234;48.148;17.128;2022-12-20T09:47:55;101252.84;;;0.85
24740;BMP280;45234;48.148;17.128;2022-12-20T09:59:37;101241.44;;;0.91
24740;BMP280;45234;48.148;17.128;2022-12-20T10:02:21;101230.41;;;0.91
24740;BMP280;45234;48.148;17.128;2022-12-20T10:05:37;101220.19;;;0.91
24740;BMP280;45234;48.148;17.128;2022-12-20T10:15:09;101215.53;;;0.83
24740;BMP280;45234;48.148;17.128;2022-12-20T10:23:03;101214.72;;;0.97
24740;BMP280;45234;48.148;17.128;2022-12-20T10:25:34;101207.94;;;0.96
24740;BMP280;45234;48.148;17.128;2022-12-20T10:28:10;101200.13;;;0.99
24740;BMP280;45234;48.148;17.128;2022-12-20T10:30:37;101212.88;;;0.99
24740;BMP280;45234;48.148;17.128;2022-12-20T10:33:04;101202.13;;;0.94
24740;BMP280;45234;48.148;17.128;2022-12-20T10:35:38;101195.13;;;0.97
24740;BMP280;45234;48.148;17.128;2022-12-20T10:38:09;101190.44;;;1.04
24740;BMP280;45234;48.148;17.128;2022-12-20T10:40:41;101182.88;;;1.02
24740;BMP280;45234;48.148;17.128;2022-12-20T10:43:39;101178.78;;;1.00
24740;BMP280;45234;48.148;17.128;2022-12-20T10:46:11;101167.56;;;1.02
24740;BMP280;45234;48.148;17.128;2022-12-20T10:48:40;101167.34;;;1.05
24740;BMP280;45234;48.148;17.128;2022-12-20T10:53:59;101151.22;;;1.05
24740;BMP280;45234;48.148;17.128;2022-12-20T10:56:31;101152.78;;;1.07
24740;BMP280;45234;48.148;17.128;2022-12-20T11:01:54;101147.75;;;1.06
24740;BMP280;45234;48.148;17.128;2022-12-20T11:04:33;101148.88;;;1.02
24740;BMP280;45234;48.148;17.128;2022-12-20T11:07:03;101144.31;;;1.07
24740;BMP280;45234;48.148;17.128;2022-12-20T11:09:57;101144.94;;;1.10
24740;BMP280;45234;48.148;17.128;2022-12-20T11:12:24;101143.53;;;1.19
24740;BMP280;45234;48.148;17.128;2022-12-20T11:15:15;101146.09;;;1.19
24740;BMP280;45234;48.148;17.128;2022-12-20T11:17:49;101133.69;;;1.13
24740;BMP280;45234;48.148;17.128;2022-12-20T11:37:19;101105.72;;;1.11
24740;BMP280;45234;48.148;17.128;2022-12-20T11:48:48;101090.16;;;1.02
24740;BMP280;45234;48.148;17.128;2022-12-20T11:54:04;101080.25;;;0.97
24740;BMP280;45234;48.148;17.128;2022-12-20T11:56:41;101074.59;;;0.92
24740;BMP280;45234;48.148;17.128;2022-12-20T12:01:51;101070.13;;;0.96
24740;BMP280;45234;48.148;17.128;2022-12-20T12:04:25;101058.38;;;0.93
24740;BMP280;45234;48.148;17.128;2022-12-20T12:07:08;101066.44;;;0.87
24740;BMP280;45234;48.148;17.128;2022-12-20T12:10:15;101062.31;;;0.84
24740;BMP280;45234;48.148;17.128;2022-12-20T12:12:47;101051.22;;;0.85
24740;BMP280;45234;48.148;17.128;2022-12-20T12:15:37;101046.84;;;0.87
24740;BMP280;45234;48.148;17.128;2022-12-20T12:18:27;101052.75;;;0.88
24740;BMP280;45234;48.148;17.128;2022-12-20T12:21:19;101042.34;;;0.91
24740;BMP280;45234;48.148;17.128;2022-12-20T12:26:53;101026.22;;;0.91
24740;BMP280;45234;48.148;17.128;2022-12-20T12:29:21;101034.38;;;0.96
24740;BMP280;45234;48.148;17.128;2022-12-20T12:32:13;101022.22;;;0.86
24740;BMP280;45234;48.148;17.128;2022-12-20T12:40:22;101013.19;;;0.68
24740;BMP280;45234;48.148;17.128;2022-12-20T12:45:46;101005.88;;;0.76
24740;BMP280;45234;48.148;17.128;2022-12-20T12:48:31;101004.75;;;0.80
24740;BMP280;45234;48.148;17.128;2022-12-20T12:51:00;100992.53;;;0.85
24740;BMP280;45234;48.148;17.128;2022-12-20T12:53:43;100997.09;;;0.80
24740;BMP280;45234;48.148;17.128;2022-12-20T13:04:52;100985.97;;;0.94
24740;BMP280;45234;48.148;17.128;2022-12-20T13:07:44;100991.59;;;0.86
24740;BMP280;45234;48.148;17.128;2022-12-20T13:20:34;101005.63;;;1.06
24740;BMP280;45234;48.148;17.128;2022-12-20T13:25:37;101007.03;;;0.98
24740;BMP280;45234;48.148;17.128;2022-12-20T13:38:53;101007.38;;;1.19
24740;BMP280;45234;48.148;17.128;2022-12-20T13:44:20;101018.59;;;1.16
24740;BMP280;45234;48.148;17.128;2022-12-20T13:49:42;101018.69;;;1.14
24740;BMP280;45234;48.148;17.128;2022-12-20T13:54:43;101023.81;;;1.27
24740;BMP280;45234;48.148;17.128;2022-12-20T13:57:27;101016.66;;;1.32
24740;BMP280;45234;48.148;17.128;2022-12-20T13:59:55;101017.66;;;1.04
24740;BMP280;45234;48.148;17.128;2022-12-20T14:02:34;101024.53;;;1.29
24740;BMP280;45234;48.148;17.128;2022-12-20T14:05:25;101019.13;;;1.34
24740;BMP280;45234;48.148;17.128;2022-12-20T14:08:00;101004.56;;;1.34
24740;BMP280;45234;48.148;17.128;2022-12-20T14:10:29;101006.44;;;1.32
24740;BMP280;45234;48.148;17.128;2022-12-20T14:12:57;101008.47;;;1.27
24740;BMP280;45234;48.148;17.128;2022-12-20T14:17:54;101001.34;;;1.32
24740;BMP280;45234;48.148;17.128;2022-12-20T14:20:28;100999.25;;;1.37
24740;BMP280;45234;48.148;17.128;2022-12-20T14:23:08;100983.75;;;1.40
24740;BMP280;45234;48.148;17.128;2022-12-20T14:28:23;100974.94;;;1.44
24740;BMP280;45234;48.148;17.128;2022-12-20T14:30:53;100966.34;;;1.45
24740;BMP280;45234;48.148;17.128;2022-12-20T14:36:16;100954.66;;;1.30
24740;BMP280;45234;48.148;17.128;2022-12-20T14:38:49;100950.66;;;1.26
24740;BMP280;45234;48.148;17.128;2022-12-20T14:41:36;100954.69;;;1.17
24740;BMP280;45234;48.148;17.128;2022-12-20T14:46:37;100943.31;;;1.22
24740;BMP280;45234;48.148;17.128;2022-12-20T14:49:25;100941.09;;;1.17
24740;BMP280;45234;48.148;17.128;2022-12-20T14:52:06;100950.06;;;1.10
24740;BMP280;45234;48.148;17.128;2022-12-20T14:54:59;100951.59;;;1.12
24740;BMP280;45234;48.148;17.128;2022-12-20T14:57:38;100959.06;;;1.28
24740;BMP280;45234;48.148;17.128;2022-12-20T15:08:20;100948.03;;;1.28
24740;BMP280;45234;48.148;17.128;2022-12-20T15:13:36;100962.84;;;1.10
24740;BMP280;45234;48.148;17.128;2022-12-20T15:16:15;100940.88;;;1.07
24740;BMP280;45234;48.148;17.128;2022-12-20T15:18:47;100945.28;;;1.18
24740;BMP280;45234;48.148;17.128;2022-12-20T15:21:33;100940.66;;;1.10
24740;BMP280;45234;48.148;17.128;2022-12-20T15:24:03;100947.09;;;1.16
24740;BMP280;45234;48.148;17.128;2022-12-20T15:26:34;100939.44;;;1.16
24740;BMP280;45234;48.148;17.128;2022-12-20T15:29:02;100936.69;;;1.19
24740;BMP280;45234;48.148;17.128;2022-12-20T15:31:31;100934.53;;;1.26
24740;BMP280;45234;48.148;17.128;2022-12-20T15:34:00;100944.22;;;1.33
24740;BMP280;45234;48.148;17.128;2022-12-20T15:36:31;100937.50;;;1.32
24740;BMP280;45234;48.148;17.128;2022-12-20T15:38:59;100936.56;;;1.33
24740;BMP280;45234;48.148;17.128;2022-12-20T15:41:40;100932.03;;;1.37
24740;BMP280;45234;48.148;17.128;2022-12-20T15:44:15;100938.88;;;1.36
24740;BMP280;45234;48.148;17.128;2022-12-20T15:46:49;100938.53;;;1.30
24740;BMP280;45234;48.148;17.128;2022-12-20T15:49:19;100931.88;;;1.27
24740;BMP280;45234;48.148;17.128;2022-12-20T15:51:48;100940.88;;;1.20
24740;BMP280;45234;48.148;17.128;2022-12-20T15:54:35;100935.16;;;1.04
24740;BMP280;45234;48.148;17.128;2022-12-20T15:57:05;100944.84;;;1.11
24740;BMP280;45234;48.148;17.128;2022-12-20T15:59:35;100950.28;;;1.07
24740;BMP280;45234;48.148;17.128;2022-12-20T16:02:27;100942.63;;;1.07
24740;BMP280;45234;48.148;17.128;2022-12-20T16:04:55;100940.25;;;1.04
24740;BMP280;45234;48.148;17.128;2022-12-20T16:07:22;100944.75;;;1.00
24740;BMP280;45234;48.148;17.128;2022-12-20T16:09:49;100939.03;;;0.97
24740;BMP280;45234;48.148;17.128;2022-12-20T16:12:27;100940.16;;;0.93
24740;BMP280;45234;48.148;17.128;2022-12-20T16:14:55;100932.28;;;0.96
24740;BMP280;45234;48.148;17.128;2022-12-20T16:17:22;100944.22;;;0.95
24740;BMP280;45234;48.148;17.128;2022-12-20T16:19:49;100935.56;;;0.98
24740;BMP280;45234;48.148;17.128;2022-12-20T16:22:18;100921.88;;;0.99
24740;BMP280;45234;48.148;17.128;2022-12-20T16:24:45;100923.72;;;0.97
24740;BMP280;45234;48.148;17.128;2022-12-20T16:27:13;100933.94;;;0.97
24740;BMP280;45234;48.148;17.128;2022-12-20T16:29:40;100940.47;;;1.01
24740;BMP280;45234;48.148;17.128;2022-12-20T16:32:18;100939.03;;;0.97
24740;BMP280;45234;48.148;17.128;2022-12-20T16:34:45;100928.72;;;0.98
24740;BMP280;45234;48.148;17.128;2022-12-20T16:37:12;100924.44;;;0.99
24740;BMP280;45234;48.148;17.128;2022-12-20T16:39:40;100942.47;;;0.96
24740;BMP280;45234;48.148;17.128;2022-12-20T16:42:16;100931.56;;;0.94
24740;BMP280;45234;48.148;17.128;2022-12-20T16:44:43;100927.16;;;0.96
24740;BMP280;45234;48.148;17.128;2022-12-20T16:47:12;100921.88;;;0.99
24740;BMP280;45234;48.148;17.128;2022-12-20T16:49:40;100917.59;;;0.99